Aérodrome :
LOGIN :

S'inscrire | Disclaimer

   EN    FR    IT 

 










Légende :    VFR   VFR Marginal   IFR   IFR Intensif   IFR Très Intensif
Visi : 
Plafond : 
>= 8 km
>= 3000ft
5 à 8 km
1000 à 3000 ft
1500m à 5 km
500 à 1000 ft
800 à 1500m
200 à 500 ft
< 800m
< 200 ft
Symboles :   Orages  Brouillard  Fortes neiges  Fortes précipitations  Vent > 20 kt
SIGMETs :   Divers  Orages  Givrage  Turbulence  Onde Orograph.  Cendres Volcan.






- Altitude de l'aérodrome : 187 ft


ETNW - Wunstorf AB

DERNIER METAR :
  • 211420Z 26005KT 9999 FEW030 SCT045 BKN140 19/11 Q1017 BLU BLU+

METARs EXPIRÉS :
  • 211320Z 25006KT 9999 FEW028 BKN220 20/13 Q1016 BLU+BLU+
  • 211220Z 22009KT 9999 FEW022 BKN250 20/14 Q1016 BLU+BLU+

TAF AMD TAF ETNW
Valide du 21 à 11h jusqu'au 22 à 11h UTC


211101Z 2111/2211 18008KT 9999 NSW FEW010 SCT120
PROB30 2122/2206 19005KT 3000 BR BKN005
BECMG 2206/2208 20008KT 8000 NSW SCT010 BKN020 BY ETGL



MET'MAP, la Météo Aéronautique d'un coup d'oeil ! - Copyright ORBIFLY Décembre 2007 - Disclaimer

ORBIFLY MET'MAP TEAM :

Programmation & Développement : Alexandra Zaïnal
Conception & Développement : Baudouin d'Aumeries
Co-Programmation & Développement : Marc-Olivier Méhu
Soutien technique & logistique : Manuel Goepfert

Contact : metmap@orbifly.com




SOURCES & CREDITS :

   NOAA